sensor_id;sensor_type;location;lat;lon;timestamp;P1;durP1;ratioP1;P2;durP2;ratioP2
8213;SDS011;4148;47.974;7.824;2023-09-12T00:00:27;10.70;;;7.97;;
8213;SDS011;4148;47.974;7.824;2023-09-12T00:02:55;9.87;;;8.00;;
8213;SDS011;4148;47.974;7.824;2023-09-12T00:05:24;10.80;;;7.90;;
8213;SDS011;4148;47.974;7.824;2023-09-12T00:07:52;9.27;;;8.37;;
8213;SDS011;4148;47.974;7.824;2023-09-12T00:10:20;9.80;;;8.60;;
8213;SDS011;4148;47.974;7.824;2023-09-12T00:12:48;8.90;;;8.00;;
8213;SDS011;4148;47.974;7.824;2023-09-12T00:15:16;9.83;;;8.10;;
8213;SDS011;4148;47.974;7.824;2023-09-12T00:17:46;9.93;;;8.60;;
8213;SDS011;4148;47.974;7.824;2023-09-12T00:20:15;11.03;;;9.30;;
8213;SDS011;4148;47.974;7.824;2023-09-12T00:22:44;9.73;;;8.10;;
8213;SDS011;4148;47.974;7.824;2023-09-12T00:25:15;11.10;;;8.80;;
8213;SDS011;4148;47.974;7.824;2023-09-12T00:27:45;9.60;;;8.60;;
8213;SDS011;4148;47.974;7.824;2023-09-12T00:30:16;9.90;;;7.90;;
8213;SDS011;4148;47.974;7.824;2023-09-12T00:32:53;8.73;;;7.83;;
8213;SDS011;4148;47.974;7.824;2023-09-12T00:35:21;10.20;;;9.20;;
8213;SDS011;4148;47.974;7.824;2023-09-12T00:37:50;13.77;;;8.87;;
8213;SDS011;4148;47.974;7.824;2023-09-12T00:40:18;8.87;;;7.73;;
8213;SDS011;4148;47.974;7.824;2023-09-12T00:42:46;9.70;;;8.70;;
8213;SDS011;4148;47.974;7.824;2023-09-12T00:45:14;8.90;;;8.10;;
8213;SDS011;4148;47.974;7.824;2023-09-12T00:47:44;11.17;;;8.93;;
8213;SDS011;4148;47.974;7.824;2023-09-12T00:50:19;12.03;;;9.70;;
8213;SDS011;4148;47.974;7.824;2023-09-12T00:52:51;10.40;;;9.10;;
8213;SDS011;4148;47.974;7.824;2023-09-12T00:55:20;10.13;;;9.03;;
8213;SDS011;4148;47.974;7.824;2023-09-12T00:57:48;10.40;;;9.40;;
8213;SDS011;4148;47.974;7.824;2023-09-12T01:00:18;10.70;;;9.30;;
8213;SDS011;4148;47.974;7.824;2023-09-12T01:02:46;10.70;;;9.60;;
8213;SDS011;4148;47.974;7.824;2023-09-12T01:05:16;11.70;;;8.80;;
8213;SDS011;4148;47.974;7.824;2023-09-12T01:07:44;10.37;;;9.10;;
8213;SDS011;4148;47.974;7.824;2023-09-12T01:10:15;11.00;;;9.10;;
8213;SDS011;4148;47.974;7.824;2023-09-12T01:12:43;9.60;;;8.70;;
8213;SDS011;4148;47.974;7.824;2023-09-12T01:15:11;10.93;;;9.83;;
8213;SDS011;4148;47.974;7.824;2023-09-12T01:17:43;11.17;;;9.83;;
8213;SDS011;4148;47.974;7.824;2023-09-12T01:20:14;10.50;;;9.40;;
8213;SDS011;4148;47.974;7.824;2023-09-12T01:22:48;10.30;;;9.30;;
8213;SDS011;4148;47.974;7.824;2023-09-12T01:25:38;11.60;;;9.30;;
8213;SDS011;4148;47.974;7.824;2023-09-12T01:28:29;10.13;;;9.10;;
8213;SDS011;4148;47.974;7.824;2023-09-12T01:30:58;11.03;;;9.83;;
8213;SDS011;4148;47.974;7.824;2023-09-12T01:33:29;11.10;;;10.00;;
8213;SDS011;4148;47.974;7.824;2023-09-12T01:35:57;9.70;;;8.70;;
8213;SDS011;4148;47.974;7.824;2023-09-12T01:38:25;10.87;;;9.37;;
8213;SDS011;4148;47.974;7.824;2023-09-12T01:40:53;11.10;;;9.20;;
8213;SDS011;4148;47.974;7.824;2023-09-12T01:43:23;12.47;;;10.20;;
8213;SDS011;4148;47.974;7.824;2023-09-12T01:45:55;10.70;;;9.60;;
8213;SDS011;4148;47.974;7.824;2023-09-12T01:48:34;11.47;;;10.23;;
8213;SDS011;4148;47.974;7.824;2023-09-12T01:51:06;11.50;;;10.30;;
8213;SDS011;4148;47.974;7.824;2023-09-12T01:53:38;9.90;;;8.87;;
8213;SDS011;4148;47.974;7.824;2023-09-12T01:56:09;11.40;;;9.10;;
8213;SDS011;4148;47.974;7.824;2023-09-12T01:58:37;11.70;;;10.40;;
8213;SDS011;4148;47.974;7.824;2023-09-12T02:01:07;11.30;;;9.20;;
8213;SDS011;4148;47.974;7.824;2023-09-12T02:03:36;13.20;;;9.63;;
8213;SDS011;4148;47.974;7.824;2023-09-12T02:06:04;10.20;;;9.10;;
8213;SDS011;4148;47.974;7.824;2023-09-12T02:08:32;10.90;;;9.80;;
8213;SDS011;4148;47.974;7.824;2023-09-12T02:11:00;9.50;;;8.50;;
8213;SDS011;4148;47.974;7.824;2023-09-12T02:13:28;10.70;;;9.40;;
8213;SDS011;4148;47.974;7.824;2023-09-12T02:15:58;12.07;;;10.33;;
8213;SDS011;4148;47.974;7.824;2023-09-12T02:18:28;10.60;;;9.50;;
8213;SDS011;4148;47.974;7.824;2023-09-12T02:20:57;11.50;;;9.73;;
8213;SDS011;4148;47.974;7.824;2023-09-12T02:23:25;11.83;;;10.60;;
8213;SDS011;4148;47.974;7.824;2023-09-12T02:25:53;10.50;;;9.50;;
8213;SDS011;4148;47.974;7.824;2023-09-12T02:28:23;11.77;;;10.57;;
8213;SDS011;4148;47.974;7.824;2023-09-12T02:30:51;12.20;;;10.50;;
8213;SDS011;4148;47.974;7.824;2023-09-12T02:33:19;11.33;;;9.77;;
8213;SDS011;4148;47.974;7.824;2023-09-12T02:35:49;11.70;;;9.47;;
8213;SDS011;4148;47.974;7.824;2023-09-12T02:38:17;12.47;;;10.80;;
8213;SDS011;4148;47.974;7.824;2023-09-12T02:40:45;14.13;;;10.30;;
8213;SDS011;4148;47.974;7.824;2023-09-12T02:43:13;11.20;;;10.00;;
8213;SDS011;4148;47.974;7.824;2023-09-12T02:45:41;9.97;;;8.97;;
8213;SDS011;4148;47.974;7.824;2023-09-12T02:48:09;11.70;;;9.27;;
8213;SDS011;4148;47.974;7.824;2023-09-12T02:50:37;10.13;;;9.20;;
8213;SDS011;4148;47.974;7.824;2023-09-12T02:53:07;12.03;;;9.40;;
8213;SDS011;4148;47.974;7.824;2023-09-12T02:55:38;10.80;;;9.70;;
8213;SDS011;4148;47.974;7.824;2023-09-12T02:58:07;11.73;;;9.93;;
8213;SDS011;4148;47.974;7.824;2023-09-12T03:00:37;10.73;;;9.70;;
8213;SDS011;4148;47.974;7.824;2023-09-12T03:03:06;13.10;;;9.67;;
8213;SDS011;4148;47.974;7.824;2023-09-12T03:05:35;12.97;;;10.70;;
8213;SDS011;4148;47.974;7.824;2023-09-12T03:08:03;11.40;;;9.90;;
8213;SDS011;4148;47.974;7.824;2023-09-12T03:10:33;10.90;;;9.80;;
8213;SDS011;4148;47.974;7.824;2023-09-12T03:13:00;11.60;;;10.20;;
8213;SDS011;4148;47.974;7.824;2023-09-12T03:15:28;12.07;;;9.90;;
8213;SDS011;4148;47.974;7.824;2023-09-12T03:17:56;10.83;;;9.83;;
8213;SDS011;4148;47.974;7.824;2023-09-12T03:20:24;11.23;;;10.13;;
8213;SDS011;4148;47.974;7.824;2023-09-12T03:22:52;12.07;;;10.50;;
8213;SDS011;4148;47.974;7.824;2023-09-12T03:25:20;11.40;;;10.03;;
8213;SDS011;4148;47.974;7.824;2023-09-12T03:27:49;12.10;;;10.80;;
8213;SDS011;4148;47.974;7.824;2023-09-12T03:30:17;11.70;;;10.50;;
8213;SDS011;4148;47.974;7.824;2023-09-12T03:32:47;12.00;;;10.70;;
8213;SDS011;4148;47.974;7.824;2023-09-12T03:35:15;13.97;;;11.67;;
8213;SDS011;4148;47.974;7.824;2023-09-12T03:37:43;16.27;;;11.23;;
8213;SDS011;4148;47.974;7.824;2023-09-12T03:40:11;13.00;;;11.70;;
8213;SDS011;4148;47.974;7.824;2023-09-12T03:42:39;11.67;;;10.47;;
8213;SDS011;4148;47.974;7.824;2023-09-12T03:45:10;13.77;;;11.37;;
8213;SDS011;4148;47.974;7.824;2023-09-12T03:47:38;12.43;;;11.13;;
8213;SDS011;4148;47.974;7.824;2023-09-12T03:50:06;13.43;;;11.50;;
8213;SDS011;4148;47.974;7.824;2023-09-12T03:52:34;11.70;;;10.50;;
8213;SDS011;4148;47.974;7.824;2023-09-12T03:55:02;12.83;;;11.40;;
8213;SDS011;4148;47.974;7.824;2023-09-12T03:57:30;11.77;;;10.57;;
8213;SDS011;4148;47.974;7.824;2023-09-12T03:59:58;13.03;;;10.80;;
8213;SDS011;4148;47.974;7.824;2023-09-12T04:02:28;12.27;;;10.97;;
8213;SDS011;4148;47.974;7.824;2023-09-12T04:04:56;12.50;;;11.03;;
8213;SDS011;4148;47.974;7.824;2023-09-12T04:07:25;13.03;;;11.03;;
8213;SDS011;4148;47.974;7.824;2023-09-12T04:09:53;12.93;;;11.50;;
8213;SDS011;4148;47.974;7.824;2023-09-12T04:12:21;12.00;;;10.77;;
8213;SDS011;4148;47.974;7.824;2023-09-12T04:14:50;14.83;;;10.80;;
8213;SDS011;4148;47.974;7.824;2023-09-12T04:17:18;13.50;;;11.27;;
8213;SDS011;4148;47.974;7.824;2023-09-12T04:19:47;12.33;;;10.93;;
8213;SDS011;4148;47.974;7.824;2023-09-12T04:22:15;12.37;;;11.17;;
8213;SDS011;4148;47.974;7.824;2023-09-12T04:24:45;12.83;;;11.33;;
8213;SDS011;4148;47.974;7.824;2023-09-12T04:27:13;14.03;;;11.80;;
8213;SDS011;4148;47.974;7.824;2023-09-12T04:29:41;42.43;;;13.00;;
8213;SDS011;4148;47.974;7.824;2023-09-12T04:32:09;15.93;;;10.93;;
8213;SDS011;4148;47.974;7.824;2023-09-12T04:34:37;12.53;;;10.63;;
8213;SDS011;4148;47.974;7.824;2023-09-12T04:37:06;13.70;;;11.60;;
8213;SDS011;4148;47.974;7.824;2023-09-12T04:39:34;13.90;;;11.40;;
8213;SDS011;4148;47.974;7.824;2023-09-12T04:42:02;15.77;;;11.93;;
8213;SDS011;4148;47.974;7.824;2023-09-12T04:44:34;14.30;;;11.93;;
8213;SDS011;4148;47.974;7.824;2023-09-12T04:47:02;16.97;;;12.00;;
8213;SDS011;4148;47.974;7.824;2023-09-12T04:49:30;18.10;;;11.83;;
8213;SDS011;4148;47.974;7.824;2023-09-12T04:51:58;13.77;;;11.83;;
8213;SDS011;4148;47.974;7.824;2023-09-12T04:54:27;14.00;;;11.57;;
8213;SDS011;4148;47.974;7.824;2023-09-12T04:56:55;12.77;;;11.47;;
8213;SDS011;4148;47.974;7.824;2023-09-12T04:59:23;17.13;;;12.70;;
8213;SDS011;4148;47.974;7.824;2023-09-12T05:01:51;13.27;;;11.80;;
8213;SDS011;4148;47.974;7.824;2023-09-12T05:04:19;13.10;;;11.30;;
8213;SDS011;4148;47.974;7.824;2023-09-12T05:06:47;13.63;;;12.03;;
8213;SDS011;4148;47.974;7.824;2023-09-12T05:09:15;16.00;;;11.90;;
8213;SDS011;4148;47.974;7.824;2023-09-12T05:11:44;13.90;;;12.27;;
8213;SDS011;4148;47.974;7.824;2023-09-12T05:14:12;16.60;;;11.83;;
8213;SDS011;4148;47.974;7.824;2023-09-12T05:16:40;17.60;;;12.90;;
8213;SDS011;4148;47.974;7.824;2023-09-12T05:19:10;15.23;;;11.87;;
8213;SDS011;4148;47.974;7.824;2023-09-12T05:21:38;14.37;;;11.70;;
8213;SDS011;4148;47.974;7.824;2023-09-12T05:24:06;14.40;;;12.07;;
8213;SDS011;4148;47.974;7.824;2023-09-12T05:26:34;13.47;;;11.10;;
8213;SDS011;4148;47.974;7.824;2023-09-12T05:29:04;12.80;;;10.90;;
8213;SDS011;4148;47.974;7.824;2023-09-12T05:31:32;12.80;;;11.03;;
8213;SDS011;4148;47.974;7.824;2023-09-12T05:34:01;13.83;;;11.43;;
8213;SDS011;4148;47.974;7.824;2023-09-12T05:36:29;14.23;;;12.03;;
8213;SDS011;4148;47.974;7.824;2023-09-12T05:38:57;15.20;;;11.50;;
8213;SDS011;4148;47.974;7.824;2023-09-12T05:41:26;14.90;;;12.20;;
8213;SDS011;4148;47.974;7.824;2023-09-12T05:43:53;12.73;;;10.80;;
8213;SDS011;4148;47.974;7.824;2023-09-12T05:46:23;12.13;;;10.03;;
8213;SDS011;4148;47.974;7.824;2023-09-12T05:48:51;16.03;;;11.67;;
8213;SDS011;4148;47.974;7.824;2023-09-12T05:51:19;15.17;;;11.47;;
8213;SDS011;4148;47.974;7.824;2023-09-12T05:53:47;18.00;;;11.97;;
8213;SDS011;4148;47.974;7.824;2023-09-12T05:56:15;12.07;;;10.60;;
8213;SDS011;4148;47.974;7.824;2023-09-12T05:58:43;13.10;;;11.13;;
8213;SDS011;4148;47.974;7.824;2023-09-12T06:01:12;13.23;;;11.03;;
8213;SDS011;4148;47.974;7.824;2023-09-12T06:03:42;13.30;;;10.30;;
8213;SDS011;4148;47.974;7.824;2023-09-12T06:06:10;12.20;;;11.00;;
8213;SDS011;4148;47.974;7.824;2023-09-12T06:08:39;13.30;;;11.73;;
8213;SDS011;4148;47.974;7.824;2023-09-12T06:11:10;13.33;;;11.87;;
8213;SDS011;4148;47.974;7.824;2023-09-12T06:13:38;13.57;;;11.47;;
8213;SDS011;4148;47.974;7.824;2023-09-12T06:16:06;12.40;;;11.10;;
8213;SDS011;4148;47.974;7.824;2023-09-12T06:18:34;16.23;;;11.93;;
8213;SDS011;4148;47.974;7.824;2023-09-12T06:21:03;13.17;;;11.20;;
8213;SDS011;4148;47.974;7.824;2023-09-12T06:23:34;12.50;;;11.07;;
8213;SDS011;4148;47.974;7.824;2023-09-12T06:26:02;12.57;;;11.23;;
8213;SDS011;4148;47.974;7.824;2023-09-12T06:28:31;13.17;;;10.73;;
8213;SDS011;4148;47.974;7.824;2023-09-12T06:30:59;13.47;;;11.20;;
8213;SDS011;4148;47.974;7.824;2023-09-12T06:33:27;12.63;;;11.03;;
8213;SDS011;4148;47.974;7.824;2023-09-12T06:35:55;15.17;;;11.50;;
8213;SDS011;4148;47.974;7.824;2023-09-12T06:38:24;13.77;;;10.80;;
8213;SDS011;4148;47.974;7.824;2023-09-12T06:40:52;13.70;;;11.17;;
8213;SDS011;4148;47.974;7.824;2023-09-12T06:43:21;12.40;;;11.03;;
8213;SDS011;4148;47.974;7.824;2023-09-12T06:45:49;13.20;;;11.53;;
8213;SDS011;4148;47.974;7.824;2023-09-12T06:48:17;14.50;;;11.90;;
8213;SDS011;4148;47.974;7.824;2023-09-12T06:50:45;15.80;;;10.87;;
8213;SDS011;4148;47.974;7.824;2023-09-12T06:53:18;12.57;;;10.37;;
8213;SDS011;4148;47.974;7.824;2023-09-12T06:55:47;11.57;;;9.73;;
8213;SDS011;4148;47.974;7.824;2023-09-12T06:58:15;12.70;;;11.40;;
8213;SDS011;4148;47.974;7.824;2023-09-12T07:00:43;14.97;;;11.63;;
8213;SDS011;4148;47.974;7.824;2023-09-12T07:03:11;12.97;;;11.00;;
8213;SDS011;4148;47.974;7.824;2023-09-12T07:05:42;12.93;;;10.50;;
8213;SDS011;4148;47.974;7.824;2023-09-12T07:08:10;10.57;;;9.43;;
8213;SDS011;4148;47.974;7.824;2023-09-12T07:10:43;12.50;;;10.03;;
8213;SDS011;4148;47.974;7.824;2023-09-12T07:13:13;12.50;;;10.40;;
8213;SDS011;4148;47.974;7.824;2023-09-12T07:15:41;12.00;;;10.70;;
8213;SDS011;4148;47.974;7.824;2023-09-12T07:18:09;12.10;;;10.60;;
8213;SDS011;4148;47.974;7.824;2023-09-12T07:20:37;12.73;;;10.70;;
8213;SDS011;4148;47.974;7.824;2023-09-12T07:23:05;11.50;;;9.80;;
8213;SDS011;4148;47.974;7.824;2023-09-12T07:25:35;11.83;;;9.70;;
8213;SDS011;4148;47.974;7.824;2023-09-12T07:28:05;11.80;;;9.93;;
8213;SDS011;4148;47.974;7.824;2023-09-12T07:30:35;14.73;;;10.50;;
8213;SDS011;4148;47.974;7.824;2023-09-12T07:33:04;12.83;;;10.50;;
8213;SDS011;4148;47.974;7.824;2023-09-12T07:35:32;13.67;;;11.23;;
8213;SDS011;4148;47.974;7.824;2023-09-12T07:38:00;11.60;;;10.40;;
8213;SDS011;4148;47.974;7.824;2023-09-12T07:40:28;11.30;;;9.90;;
8213;SDS011;4148;47.974;7.824;2023-09-12T07:42:56;14.80;;;11.80;;
8213;SDS011;4148;47.974;7.824;2023-09-12T07:45:24;13.03;;;11.63;;
8213;SDS011;4148;47.974;7.824;2023-09-12T07:47:53;12.00;;;10.47;;
8213;SDS011;4148;47.974;7.824;2023-09-12T07:50:21;12.70;;;11.47;;
8213;SDS011;4148;47.974;7.824;2023-09-12T07:52:49;12.33;;;10.97;;
8213;SDS011;4148;47.974;7.824;2023-09-12T07:55:17;11.97;;;10.67;;
8213;SDS011;4148;47.974;7.824;2023-09-12T07:57:45;14.10;;;11.00;;
8213;SDS011;4148;47.974;7.824;2023-09-12T08:00:13;12.40;;;11.10;;
8213;SDS011;4148;47.974;7.824;2023-09-12T08:02:43;12.67;;;11.37;;
8213;SDS011;4148;47.974;7.824;2023-09-12T08:05:12;13.23;;;11.27;;
8213;SDS011;4148;47.974;7.824;2023-09-12T08:07:41;11.70;;;10.60;;
8213;SDS011;4148;47.974;7.824;2023-09-12T08:10:09;11.63;;;10.53;;
8213;SDS011;4148;47.974;7.824;2023-09-12T08:12:37;11.87;;;10.67;;
8213;SDS011;4148;47.974;7.824;2023-09-12T08:15:07;14.20;;;10.43;;
8213;SDS011;4148;47.974;7.824;2023-09-12T08:17:35;12.37;;;10.53;;
8213;SDS011;4148;47.974;7.824;2023-09-12T08:20:05;12.83;;;10.37;;
8213;SDS011;4148;47.974;7.824;2023-09-12T08:22:37;11.40;;;10.30;;
8213;SDS011;4148;47.974;7.824;2023-09-12T08:25:05;12.57;;;11.03;;
8213;SDS011;4148;47.974;7.824;2023-09-12T08:27:34;14.17;;;11.00;;
8213;SDS011;4148;47.974;7.824;2023-09-12T08:30:01;14.80;;;11.20;;
8213;SDS011;4148;47.974;7.824;2023-09-12T08:32:30;13.07;;;11.77;;
8213;SDS011;4148;47.974;7.824;2023-09-12T08:34:58;12.40;;;11.10;;
8213;SDS011;4148;47.974;7.824;2023-09-12T08:37:26;16.90;;;11.33;;
8213;SDS011;4148;47.974;7.824;2023-09-12T08:39:56;13.43;;;12.03;;
8213;SDS011;4148;47.974;7.824;2023-09-12T08:42:26;11.57;;;10.47;;
8213;SDS011;4148;47.974;7.824;2023-09-12T08:44:54;13.87;;;11.23;;
8213;SDS011;4148;47.974;7.824;2023-09-12T08:47:22;13.17;;;11.57;;
8213;SDS011;4148;47.974;7.824;2023-09-12T08:49:52;13.83;;;11.03;;
8213;SDS011;4148;47.974;7.824;2023-09-12T08:52:21;17.03;;;10.80;;
8213;SDS011;4148;47.974;7.824;2023-09-12T08:54:49;11.53;;;10.33;;
8213;SDS011;4148;47.974;7.824;2023-09-12T08:57:18;13.60;;;10.40;;
8213;SDS011;4148;47.974;7.824;2023-09-12T08:59:47;12.13;;;10.83;;
8213;SDS011;4148;47.974;7.824;2023-09-12T09:02:16;11.37;;;10.10;;
8213;SDS011;4148;47.974;7.824;2023-09-12T09:04:45;10.70;;;9.60;;
8213;SDS011;4148;47.974;7.824;2023-09-12T09:07:17;11.07;;;10.07;;
8213;SDS011;4148;47.974;7.824;2023-09-12T09:09:47;10.87;;;9.77;;
8213;SDS011;4148;47.974;7.824;2023-09-12T09:12:19;11.67;;;10.53;;
8213;SDS011;4148;47.974;7.824;2023-09-12T09:14:47;11.80;;;10.20;;
8213;SDS011;4148;47.974;7.824;2023-09-12T09:17:15;9.73;;;8.70;;
8213;SDS011;4148;47.974;7.824;2023-09-12T09:20:00;10.80;;;9.30;;
8213;SDS011;4148;47.974;7.824;2023-09-12T09:22:28;9.13;;;8.33;;
8213;SDS011;4148;47.974;7.824;2023-09-12T09:25:09;10.87;;;8.77;;
8213;SDS011;4148;47.974;7.824;2023-09-12T09:27:40;11.10;;;9.77;;
8213;SDS011;4148;47.974;7.824;2023-09-12T09:30:08;11.33;;;9.40;;
8213;SDS011;4148;47.974;7.824;2023-09-12T09:32:38;9.10;;;8.20;;
8213;SDS011;4148;47.974;7.824;2023-09-12T09:35:07;10.07;;;8.63;;
8213;SDS011;4148;47.974;7.824;2023-09-12T09:37:37;9.40;;;8.17;;
8213;SDS011;4148;47.974;7.824;2023-09-12T09:40:06;8.47;;;7.60;;
8213;SDS011;4148;47.974;7.824;2023-09-12T09:42:36;7.40;;;6.70;;
8213;SDS011;4148;47.974;7.824;2023-09-12T09:45:07;9.40;;;7.53;;
8213;SDS011;4148;47.974;7.824;2023-09-12T09:47:35;8.40;;;7.47;;
8213;SDS011;4148;47.974;7.824;2023-09-12T09:50:03;8.53;;;7.63;;
8213;SDS011;4148;47.974;7.824;2023-09-12T09:52:33;8.13;;;6.80;;
8213;SDS011;4148;47.974;7.824;2023-09-12T09:55:03;8.07;;;7.27;;
8213;SDS011;4148;47.974;7.824;2023-09-12T09:57:36;11.03;;;7.50;;
8213;SDS011;4148;47.974;7.824;2023-09-12T10:00:04;7.87;;;7.07;;
8213;SDS011;4148;47.974;7.824;2023-09-12T10:02:41;8.20;;;7.50;;
8213;SDS011;4148;47.974;7.824;2023-09-12T10:05:11;7.83;;;6.87;;
8213;SDS011;4148;47.974;7.824;2023-09-12T10:07:44;7.70;;;7.00;;
8213;SDS011;4148;47.974;7.824;2023-09-12T10:10:15;7.77;;;7.10;;
8213;SDS011;4148;47.974;7.824;2023-09-12T10:12:48;8.83;;;7.70;;
8213;SDS011;4148;47.974;7.824;2023-09-12T10:15:20;7.53;;;6.90;;
8213;SDS011;4148;47.974;7.824;2023-09-12T10:17:51;8.13;;;7.33;;
8213;SDS011;4148;47.974;7.824;2023-09-12T10:20:24;9.93;;;6.77;;
8213;SDS011;4148;47.974;7.824;2023-09-12T10:23:00;7.10;;;6.50;;
8213;SDS011;4148;47.974;7.824;2023-09-12T10:25:35;7.37;;;6.77;;
8213;SDS011;4148;47.974;7.824;2023-09-12T10:28:04;7.63;;;6.50;;
8213;SDS011;4148;47.974;7.824;2023-09-12T10:30:34;7.27;;;6.57;;
8213;SDS011;4148;47.974;7.824;2023-09-12T10:33:03;7.40;;;6.80;;
8213;SDS011;4148;47.974;7.824;2023-09-12T10:35:32;8.03;;;7.33;;
8213;SDS011;4148;47.974;7.824;2023-09-12T10:38:02;7.50;;;6.80;;
8213;SDS011;4148;47.974;7.824;2023-09-12T10:40:31;7.70;;;6.90;;
8213;SDS011;4148;47.974;7.824;2023-09-12T10:43:07;8.60;;;7.50;;
8213;SDS011;4148;47.974;7.824;2023-09-12T10:45:39;7.70;;;6.90;;
8213;SDS011;4148;47.974;7.824;2023-09-12T10:48:09;6.87;;;6.27;;
8213;SDS011;4148;47.974;7.824;2023-09-12T10:50:37;8.77;;;6.93;;
8213;SDS011;4148;47.974;7.824;2023-09-12T10:53:10;7.63;;;6.93;;
8213;SDS011;4148;47.974;7.824;2023-09-12T10:55:38;7.83;;;6.80;;
8213;SDS011;4148;47.974;7.824;2023-09-12T10:58:07;9.00;;;6.23;;
8213;SDS011;4148;47.974;7.824;2023-09-12T11:00:37;8.03;;;7.23;;
8213;SDS011;4148;47.974;7.824;2023-09-12T11:06:19;9.50;;;7.23;;
8213;SDS011;4148;47.974;7.824;2023-09-12T11:09:15;7.40;;;6.80;;
8213;SDS011;4148;47.974;7.824;2023-09-12T11:11:45;7.80;;;6.83;;
8213;SDS011;4148;47.974;7.824;2023-09-12T11:14:14;8.23;;;7.30;;
8213;SDS011;4148;47.974;7.824;2023-09-12T11:16:43;9.77;;;7.13;;
8213;SDS011;4148;47.974;7.824;2023-09-12T11:19:51;7.90;;;7.20;;
8213;SDS011;4148;47.974;7.824;2023-09-12T11:22:23;7.67;;;6.90;;
8213;SDS011;4148;47.974;7.824;2023-09-12T11:24:52;9.50;;;8.50;;
8213;SDS011;4148;47.974;7.824;2023-09-12T11:27:22;11.27;;;7.40;;
8213;SDS011;4148;47.974;7.824;2023-09-12T11:30:02;7.87;;;7.23;;
8213;SDS011;4148;47.974;7.824;2023-09-12T11:32:31;7.70;;;7.00;;
8213;SDS011;4148;47.974;7.824;2023-09-12T11:35:05;10.10;;;8.17;;
8213;SDS011;4148;47.974;7.824;2023-09-12T11:37:34;8.30;;;7.60;;
8213;SDS011;4148;47.974;7.824;2023-09-12T11:40:15;8.73;;;7.83;;
8213;SDS011;4148;47.974;7.824;2023-09-12T11:42:44;9.17;;;7.80;;
8213;SDS011;4148;47.974;7.824;2023-09-12T11:45:13;7.93;;;7.23;;
8213;SDS011;4148;47.974;7.824;2023-09-12T11:47:42;9.40;;;7.10;;
8213;SDS011;4148;47.974;7.824;2023-09-12T11:50:26;7.93;;;7.20;;
8213;SDS011;4148;47.974;7.824;2023-09-12T11:53:01;8.47;;;7.63;;
8213;SDS011;4148;47.974;7.824;2023-09-12T11:55:31;7.43;;;6.83;;
8213;SDS011;4148;47.974;7.824;2023-09-12T11:57:59;7.43;;;6.83;;
8213;SDS011;4148;47.974;7.824;2023-09-12T12:00:29;8.27;;;7.57;;
8213;SDS011;4148;47.974;7.824;2023-09-12T12:02:57;7.23;;;6.63;;
8213;SDS011;4148;47.974;7.824;2023-09-12T12:05:26;9.83;;;8.07;;
8213;SDS011;4148;47.974;7.824;2023-09-12T12:07:54;8.87;;;7.97;;
8213;SDS011;4148;47.974;7.824;2023-09-12T12:10:42;8.40;;;7.60;;
8213;SDS011;4148;47.974;7.824;2023-09-12T12:13:11;8.17;;;7.47;;
8213;SDS011;4148;47.974;7.824;2023-09-12T12:15:39;8.43;;;7.63;;
8213;SDS011;4148;47.974;7.824;2023-09-12T12:18:07;8.90;;;8.10;;
8213;SDS011;4148;47.974;7.824;2023-09-12T12:20:36;11.23;;;8.33;;
8213;SDS011;4148;47.974;7.824;2023-09-12T12:23:04;8.30;;;7.60;;
8213;SDS011;4148;47.974;7.824;2023-09-12T12:25:32;8.50;;;7.70;;
8213;SDS011;4148;47.974;7.824;2023-09-12T12:28:01;9.10;;;8.30;;
8213;SDS011;4148;47.974;7.824;2023-09-12T12:30:30;9.43;;;7.90;;
8213;SDS011;4148;47.974;7.824;2023-09-12T12:33:00;9.70;;;7.57;;
8213;SDS011;4148;47.974;7.824;2023-09-12T12:35:53;8.57;;;7.83;;
8213;SDS011;4148;47.974;7.824;2023-09-12T12:38:27;8.77;;;7.90;;
8213;SDS011;4148;47.974;7.824;2023-09-12T12:40:55;9.07;;;8.37;;
8213;SDS011;4148;47.974;7.824;2023-09-12T12:43:23;8.80;;;7.90;;
8213;SDS011;4148;47.974;7.824;2023-09-12T12:45:53;8.73;;;7.83;;
8213;SDS011;4148;47.974;7.824;2023-09-12T12:48:31;11.27;;;9.07;;
8213;SDS011;4148;47.974;7.824;2023-09-12T12:51:05;9.10;;;7.73;;
8213;SDS011;4148;47.974;7.824;2023-09-12T12:53:43;8.80;;;7.90;;
8213;SDS011;4148;47.974;7.824;2023-09-12T12:56:19;9.33;;;8.43;;
8213;SDS011;4148;47.974;7.824;2023-09-12T12:58:49;8.73;;;7.93;;
8213;SDS011;4148;47.974;7.824;2023-09-12T13:01:18;9.40;;;8.60;;
8213;SDS011;4148;47.974;7.824;2023-09-12T13:03:46;12.57;;;8.30;;
8213;SDS011;4148;47.974;7.824;2023-09-12T13:06:17;10.53;;;8.83;;
8213;SDS011;4148;47.974;7.824;2023-09-12T13:08:46;7.97;;;7.17;;
8213;SDS011;4148;47.974;7.824;2023-09-12T13:11:15;9.10;;;8.03;;
8213;SDS011;4148;47.974;7.824;2023-09-12T13:13:44;8.93;;;8.23;;
8213;SDS011;4148;47.974;7.824;2023-09-12T13:16:15;8.53;;;7.73;;
8213;SDS011;4148;47.974;7.824;2023-09-12T13:18:43;9.07;;;8.03;;
8213;SDS011;4148;47.974;7.824;2023-09-12T13:21:11;8.53;;;7.73;;
8213;SDS011;4148;47.974;7.824;2023-09-12T13:23:41;8.27;;;7.47;;
8213;SDS011;4148;47.974;7.824;2023-09-12T13:26:09;9.57;;;8.67;;
8213;SDS011;4148;47.974;7.824;2023-09-12T13:28:37;9.13;;;8.23;;
8213;SDS011;4148;47.974;7.824;2023-09-12T13:31:05;8.20;;;7.50;;
8213;SDS011;4148;47.974;7.824;2023-09-12T13:33:34;7.50;;;6.90;;
8213;SDS011;4148;47.974;7.824;2023-09-12T13:36:02;9.27;;;7.53;;
8213;SDS011;4148;47.974;7.824;2023-09-12T13:38:30;10.37;;;7.07;;
8213;SDS011;4148;47.974;7.824;2023-09-12T13:40:59;7.53;;;5.93;;
8213;SDS011;4148;47.974;7.824;2023-09-12T13:43:27;5.63;;;5.03;;
8213;SDS011;4148;47.974;7.824;2023-09-12T13:45:55;5.40;;;5.00;;
8213;SDS011;4148;47.974;7.824;2023-09-12T13:48:23;5.57;;;5.07;;
8213;SDS011;4148;47.974;7.824;2023-09-12T13:50:52;5.40;;;4.90;;
8213;SDS011;4148;47.974;7.824;2023-09-12T13:53:20;5.30;;;4.80;;
8213;SDS011;4148;47.974;7.824;2023-09-12T13:55:48;5.73;;;5.13;;
8213;SDS011;4148;47.974;7.824;2023-09-12T13:58:35;5.77;;;5.27;;
8213;SDS011;4148;47.974;7.824;2023-09-12T14:01:10;5.73;;;5.23;;
8213;SDS011;4148;47.974;7.824;2023-09-12T14:03:46;6.47;;;5.30;;
8213;SDS011;4148;47.974;7.824;2023-09-12T14:06:15;5.77;;;4.90;;
8213;SDS011;4148;47.974;7.824;2023-09-12T14:08:43;8.37;;;5.33;;
8213;SDS011;4148;47.974;7.824;2023-09-12T14:11:11;5.60;;;5.10;;
8213;SDS011;4148;47.974;7.824;2023-09-12T14:13:57;6.00;;;5.40;;
8213;SDS011;4148;47.974;7.824;2023-09-12T14:16:40;5.93;;;5.43;;
8213;SDS011;4148;47.974;7.824;2023-09-12T14:19:13;5.50;;;5.00;;
8213;SDS011;4148;47.974;7.824;2023-09-12T14:21:42;6.97;;;5.90;;
8213;SDS011;4148;47.974;7.824;2023-09-12T14:24:13;5.60;;;5.10;;
8213;SDS011;4148;47.974;7.824;2023-09-12T14:26:41;6.20;;;5.53;;
8213;SDS011;4148;47.974;7.824;2023-09-12T14:29:12;6.43;;;5.70;;
8213;SDS011;4148;47.974;7.824;2023-09-12T14:31:40;6.03;;;5.43;;
8213;SDS011;4148;47.974;7.824;2023-09-12T14:34:17;6.43;;;5.87;;
8213;SDS011;4148;47.974;7.824;2023-09-12T14:36:44;6.00;;;5.50;;
8213;SDS011;4148;47.974;7.824;2023-09-12T14:39:14;6.23;;;5.50;;
8213;SDS011;4148;47.974;7.824;2023-09-12T14:41:42;5.73;;;5.23;;
8213;SDS011;4148;47.974;7.824;2023-09-12T14:44:17;8.57;;;5.63;;
8213;SDS011;4148;47.974;7.824;2023-09-12T14:46:45;6.10;;;5.60;;
8213;SDS011;4148;47.974;7.824;2023-09-12T14:49:13;6.67;;;5.60;;
8213;SDS011;4148;47.974;7.824;2023-09-12T14:51:41;8.10;;;5.93;;
8213;SDS011;4148;47.974;7.824;2023-09-12T14:54:09;7.83;;;5.70;;
8213;SDS011;4148;47.974;7.824;2023-09-12T14:56:37;7.13;;;6.43;;
8213;SDS011;4148;47.974;7.824;2023-09-12T14:59:05;7.60;;;6.17;;
8213;SDS011;4148;47.974;7.824;2023-09-12T15:01:34;8.17;;;5.97;;
8213;SDS011;4148;47.974;7.824;2023-09-12T15:04:02;7.57;;;6.53;;
8213;SDS011;4148;47.974;7.824;2023-09-12T15:06:30;8.87;;;6.87;;
8213;SDS011;4148;47.974;7.824;2023-09-12T15:08:59;7.60;;;6.47;;
8213;SDS011;4148;47.974;7.824;2023-09-12T15:11:28;7.33;;;6.60;;
8213;SDS011;4148;47.974;7.824;2023-09-12T15:13:57;7.63;;;6.90;;
8213;SDS011;4148;47.974;7.824;2023-09-12T15:16:25;10.53;;;6.90;;
8213;SDS011;4148;47.974;7.824;2023-09-12T15:18:55;8.43;;;7.43;;